Time,TemperatureF,DewpointF,PressureIn,WindDirection,WindDirectionDegrees,WindSpeedMPH,WindSpeedGustMPH,Humidity,HourlyPrecipIn,Conditions,Clouds,dailyrainin,SolarRadiationWatts/m^2,SoftwareType,DateUTC
2013-01-19 00:33:00,56.0,18.0,-100.00,North,358,1.0,4.0,22,-99.99,,,0.00,7.000000,,2013-01-19 08:33:00,
2013-01-19 01:33:00,52.0,18.0,-100.00,North,349,1.0,4.0,26,-99.99,,,0.00,7.000000,,2013-01-19 09:33:00,
2013-01-19 02:33:00,54.0,17.0,-100.00,NNE,22,0.0,5.0,23,-99.99,,,-99.99,6.000000,,2013-01-19 10:33:00,
2013-01-19 05:34:00,52.0,16.0,-100.00,North,353,3.0,6.0,24,-99.99,,,0.00,7.000000,,2013-01-19 13:34:00,
2013-01-19 06:34:00,53.0,14.0,-100.00,NNW,343,2.0,5.0,21,-99.99,,,0.00,6.000000,,2013-01-19 14:34:00,
2013-01-19 07:43:00,49.0,16.0,-100.00,NNW,333,0.0,4.0,27,-99.99,,,0.00,6.000000,,2013-01-19 15:43:00,
2013-01-19 07:53:00,49.0,16.0,-100.00,NNW,333,0.0,4.0,27,-99.99,,,0.00,6.000000,,2013-01-19 15:53:00,
2013-01-19 08:33:00,50.0,18.0,-100.00,SW,223,0.0,3.0,28,-99.99,,,0.00,13.000000,,2013-01-19 16:33:00,
2013-01-19 09:37:00,54.0,20.0,-100.00,SSW,194,4.0,8.0,26,-99.99,,,0.00,110.000000,,2013-01-19 17:37:00,
2013-01-19 10:37:00,61.0,22.0,-100.00,SSW,197,0.0,6.0,22,-99.99,,,0.00,301.000000,,2013-01-19 18:37:00,
2013-01-19 11:49:00,66.0,26.0,-100.00,SSW,202,1.0,4.0,22,-99.99,,,0.00,452.000000,,2013-01-19 19:49:00,
2013-01-19 11:55:00,66.0,26.0,-100.00,SSW,202,1.0,4.0,22,-99.99,,,0.00,452.000000,,2013-01-19 19:55:00,
2013-01-19 12:39:00,65.0,36.0,-100.00,SSW,196,0.0,4.0,34,-99.99,,,0.00,545.000000,,2013-01-19 20:39:00,
2013-01-19 13:53:00,62.0,34.0,-100.00,SSE,151,0.0,3.0,35,-99.99,,,0.00,567.000000,,2013-01-19 21:53:00,
2013-01-19 13:58:00,62.0,34.0,-100.00,SSE,151,0.0,3.0,35,-99.99,,,0.00,567.000000,,2013-01-19 21:58:00,
2013-01-19 14:48:00,60.0,32.0,-100.00,ESE,121,0.0,0.0,35,-99.99,,,0.00,516.000000,,2013-01-19 22:48:00,
2013-01-19 14:57:00,60.0,32.0,-100.00,ESE,121,0.0,0.0,35,-99.99,,,0.00,516.000000,,2013-01-19 22:57:00,
2013-01-19 15:35:00,63.0,36.0,-100.00,South,187,0.0,0.0,36,-99.99,,,0.00,397.000000,,2013-01-19 23:35:00,
2013-01-19 16:37:00,56.0,34.0,-100.00,SW,220,0.0,0.0,44,-99.99,,,0.00,178.000000,,2013-01-20 00:37:00,
2013-01-19 17:39:00,48.0,21.0,-100.00,South,179,0.0,3.0,34,-99.99,,,-99.99,23.000000,,2013-01-20 01:39:00,
2013-01-19 18:38:00,46.0,24.0,-100.00,SSW,213,0.0,4.0,41,-99.99,,,-99.99,6.000000,,2013-01-20 02:38:00,
2013-01-19 19:39:00,48.0,22.0,-100.00,SW,230,0.0,3.0,35,-99.99,,,0.00,5.000000,,2013-01-20 03:39:00,
2013-01-19 20:38:00,46.0,21.0,-100.00,SW,233,0.0,4.0,36,-99.99,,,0.00,5.000000,,2013-01-20 04:38:00,
2013-01-19 21:33:00,47.0,16.0,-100.00,SSW,207,0.0,3.0,28,-99.99,,,0.00,5.000000,,2013-01-20 05:33:00,
2013-01-19 22:33:00,47.0,19.0,-100.00,SW,218,0.0,3.0,33,-99.99,,,0.00,5.000000,,2013-01-20 06:33:00,
2013-01-19 23:32:00,46.0,21.0,-100.00,SW,222,0.0,3.0,36,-99.99,,,0.00,4.000000,,2013-01-20 07:32:00,